Time;durP1;ratioP1;P1;durP2;ratioP2;P2;SDS_P1;SDS_P2;PMS_P1;PMS_P2;Temp;Humidity;BMP_temperature;BMP_pressure;BME280_temperature;BME280_humidity;BME280_pressure;Samples;Min_cycle;Max_cycle;Signal;HPM_P1;HPM_P2
2023/06/28 00:01:08;;;;;;;;;;;;;;;21.79;28.53;97524.94;4994787;28;958;-74
2023/06/28 00:03:33;;;;;;;;;;;;;;;21.98;28.12;97523.84;4995219;28;1017;-74
2023/06/28 00:05:58;;;;;;;;;;;;;;;22.10;27.82;97525.03;5021715;28;983;-74
2023/06/28 00:08:24;;;;;;;;;;;;;;;21.95;28.26;97523.97;5017094;28;1229;-74
2023/06/28 00:10:50;;;;;;;;;;;;;;;21.95;28.31;97519.09;5015651;28;940;-74
2023/06/28 00:13:16;;;;;;;;;;;;;;;22.22;28.01;97527.03;5015611;28;1906;-75
2023/06/28 00:15:41;;;;;;;;;;;;;;;22.18;27.79;97525.63;5015928;28;998;-74
2023/06/28 00:18:08;;;;;;;;;;;;;;;22.02;28.28;97523.69;5015279;28;879;-74
2023/06/28 00:20:34;;;;;;;;;;;;;;;22.25;27.71;97523.31;5016774;28;901;-74
2023/06/28 00:22:59;;;;;;;;;;;;;;;22.34;27.85;97520.53;5016305;28;1038;-74
2023/06/28 00:25:25;;;;;;;;;;;;;;;22.19;27.95;97516.66;4994634;28;1012;-74
2023/06/28 00:27:50;;;;;;;;;;;;;;;22.18;27.77;97517.91;4994835;28;1189;-73
2023/06/28 00:30:16;;;;;;;;;;;;;;;22.22;27.87;97527.03;4978430;28;925;-73
2023/06/28 00:32:41;;;;;;;;;;;;;;;21.81;28.77;97523.25;4978513;28;1148;-73
2023/06/28 00:35:07;;;;;;;;;;;;;;;22.10;28.01;97519.38;4962249;28;1902;-74
2023/06/28 00:37:32;;;;;;;;;;;;;;;21.99;28.45;97519.75;4978572;28;1354;-74
2023/06/28 00:39:58;;;;;;;;;;;;;;;21.93;28.43;97515.16;4994700;28;1486;-74
2023/06/28 00:42:24;;;;;;;;;;;;;;;21.95;28.54;97516.25;4962452;28;1348;-73
2023/06/28 00:44:49;;;;;;;;;;;;;;;22.17;27.98;97512.69;4994444;28;933;-74
2023/06/28 00:47:15;;;;;;;;;;;;;;;22.14;27.90;97514.41;4978408;28;1003;-73
2023/06/28 00:49:41;;;;;;;;;;;;;;;21.97;28.26;97510.94;4994326;28;916;-73
2023/06/28 00:52:07;;;;;;;;;;;;;;;21.95;28.22;97504.13;4978366;28;960;-73
2023/06/28 00:54:33;;;;;;;;;;;;;;;21.93;28.25;97512.31;4962369;28;1966;-73
2023/06/28 00:56:59;;;;;;;;;;;;;;;22.00;28.49;97497.88;5007090;28;1096;-74
2023/06/28 00:59:24;;;;;;;;;;;;;;;21.97;28.43;97501.66;5019121;28;1193;-73
2023/06/28 01:01:50;;;;;;;;;;;;;;;21.87;28.53;97500.00;5018792;28;960;-74
2023/06/28 01:04:16;;;;;;;;;;;;;;;22.07;28.14;97508.94;5019853;28;918;-74
2023/06/28 01:06:42;;;;;;;;;;;;;;;21.85;28.72;97500.44;5018859;28;958;-73
2023/06/28 01:09:11;;;;;;;;;;;;;;;22.02;28.36;97499.03;5018925;28;1197;-74
2023/06/28 01:11:37;;;;;;;;;;;;;;;22.12;28.19;97499.88;5018978;28;959;-73
2023/06/28 01:14:03;;;;;;;;;;;;;;;21.84;28.62;97491.16;5018527;28;1906;-74
2023/06/28 01:16:29;;;;;;;;;;;;;;;22.03;28.00;97494.16;4965588;28;1081;-73
2023/06/28 01:18:54;;;;;;;;;;;;;;;21.82;28.59;97493.66;4958989;28;1255;-74
2023/06/28 01:21:20;;;;;;;;;;;;;;;22.08;28.09;97499.22;4959093;28;1336;-73
2023/06/28 01:23:45;;;;;;;;;;;;;;;22.09;28.22;97495.13;4920918;29;1315;-73
2023/06/28 01:26:11;;;;;;;;;;;;;;;22.01;27.97;97490.97;4920934;29;1120;-74
2023/06/28 01:28:38;;;;;;;;;;;;;;;22.02;28.19;97490.53;4920721;29;1506;-74
2023/06/28 01:31:06;;;;;;;;;;;;;;;22.00;28.17;97493.00;4905125;29;1614;-74
2023/06/28 01:33:32;;;;;;;;;;;;;;;21.90;28.40;97499.06;4904775;29;1976;-73
2023/06/28 01:35:58;;;;;;;;;;;;;;;21.79;28.52;97494.56;4920637;29;1126;-74
2023/06/28 01:38:23;;;;;;;;;;;;;;;22.00;28.13;97492.22;4920388;29;1052;-74
2023/06/28 01:40:49;;;;;;;;;;;;;;;22.03;28.17;97494.16;4904913;29;1185;-74
2023/06/28 01:43:15;;;;;;;;;;;;;;;22.00;28.24;97495.06;4920528;29;1134;-74
2023/06/28 01:45:40;;;;;;;;;;;;;;;21.85;28.52;97492.72;4920602;29;1244;-74
2023/06/28 01:48:06;;;;;;;;;;;;;;;21.91;28.35;97489.31;4935275;29;937;-73
2023/06/28 01:50:31;;;;;;;;;;;;;;;22.10;27.89;97508.88;4969011;28;1204;-73
2023/06/28 01:52:57;;;;;;;;;;;;;;;21.92;28.42;97496.59;4961817;28;1012;-73
2023/06/28 01:55:26;;;;;;;;;;;;;;;21.81;28.35;97494.09;5004927;28;1902;-74
2023/06/28 01:57:51;;;;;;;;;;;;;;;22.07;28.15;97494.78;5019001;28;855;-73
2023/06/28 02:00:17;;;;;;;;;;;;;;;22.07;28.23;97491.94;5017526;28;1321;-74
2023/06/28 02:02:43;;;;;;;;;;;;;;;21.87;28.60;97494.34;5000456;28;977;-74
2023/06/28 02:05:08;;;;;;;;;;;;;;;21.83;28.68;97498.06;5018038;28;843;-74
2023/06/28 02:07:34;;;;;;;;;;;;;;;22.04;28.02;97492.88;5018500;28;1497;-74
2023/06/28 02:10:00;;;;;;;;;;;;;;;21.94;28.08;97489.19;5018955;28;918;-74
2023/06/28 02:12:25;;;;;;;;;;;;;;;22.14;27.87;97500.25;5001343;28;1239;-73
2023/06/28 02:14:51;;;;;;;;;;;;;;;21.85;28.31;97492.72;5001489;28;1914;-75
2023/06/28 02:17:20;;;;;;;;;;;;;;;21.83;28.58;97489.56;5009783;28;1130;-74
2023/06/28 02:19:46;;;;;;;;;;;;;;;21.94;28.34;97483.53;5000020;28;1096;-74
2023/06/28 02:22:12;;;;;;;;;;;;;;;22.10;27.75;97485.38;4983813;28;1243;-73
2023/06/28 02:24:37;;;;;;;;;;;;;;;22.08;27.85;97466.00;5000252;28;956;-74
2023/06/28 02:27:03;;;;;;;;;;;;;;;22.36;27.29;97492.50;5000024;28;1317;-74
2023/06/28 02:29:29;;;;;;;;;;;;;;;22.12;27.92;97488.56;4999985;28;1108;-74
2023/06/28 02:31:55;;;;;;;;;;;;;;;22.30;27.55;97487.91;5000040;28;975;-74
2023/06/28 02:34:21;;;;;;;;;;;;;;;22.15;27.76;97487.66;4999572;28;2044;-73
2023/06/28 02:36:46;;;;;;;;;;;;;;;22.21;27.61;97491.47;4976912;28;1008;-73
2023/06/28 02:39:12;;;;;;;;;;;;;;;22.04;27.95;97485.19;4960774;28;1272;-75
2023/06/28 02:41:38;;;;;;;;;;;;;;;21.82;28.28;97492.88;4976835;28;955;-74
2023/06/28 02:44:05;;;;;;;;;;;;;;;22.09;27.83;97486.63;4961189;28;1030;-74
2023/06/28 02:46:31;;;;;;;;;;;;;;;21.87;28.22;97485.84;4957396;29;1147;-74
2023/06/28 02:48:57;;;;;;;;;;;;;;;22.08;27.81;97488.69;4941420;29;1518;-74
2023/06/28 02:51:23;;;;;;;;;;;;;;;21.83;28.17;97480.28;4941722;29;963;-74
2023/06/28 02:53:48;;;;;;;;;;;;;;;22.04;28.04;97482.34;4938061;29;1986;-74
2023/06/28 02:56:15;;;;;;;;;;;;;;;21.98;28.07;97486.25;4922126;29;1573;-75
2023/06/28 02:58:59;;;;;;;;;;;;;;;22.02;27.98;97489.72;4924653;29;1049;-74
2023/06/28 03:01:27;;;;;;;;;;;;;;;22.06;27.73;97481.88;4922467;29;1434;-74
2023/06/28 03:03:52;;;;;;;;;;;;;;;22.01;28.09;97485.31;4938420;29;1135;-74
2023/06/28 03:06:18;;;;;;;;;;;;;;;21.84;28.18;97488.31;4890641;29;1337;-74
2023/06/28 03:08:44;;;;;;;;;;;;;;;21.88;28.38;97478.91;4937835;29;1214;-73
2023/06/28 03:11:09;;;;;;;;;;;;;;;21.95;28.32;97487.16;4906418;29;982;-73
2023/06/28 03:13:35;;;;;;;;;;;;;;;21.81;28.51;97486.41;4904524;29;1907;-74
2023/06/28 03:16:00;;;;;;;;;;;;;;;22.10;27.86;97486.19;4918657;29;1637;-73
2023/06/28 03:18:26;;;;;;;;;;;;;;;22.04;28.07;97485.19;4935975;29;1251;-74
2023/06/28 03:20:51;;;;;;;;;;;;;;;22.12;28.11;97487.78;4957287;28;1658;-74
2023/06/28 03:23:17;;;;;;;;;;;;;;;22.00;28.24;97487.34;4956614;29;1021;-74
2023/06/28 03:25:42;;;;;;;;;;;;;;;22.34;27.64;97482.91;4973907;28;1327;-74
2023/06/28 03:28:08;;;;;;;;;;;;;;;22.17;28.00;97496.47;4959716;28;1470;-75
2023/06/28 03:30:34;;;;;;;;;;;;;;;22.07;27.81;97486.28;4959784;28;1060;-74
2023/06/28 03:33:00;;;;;;;;;;;;;;;21.77;28.64;97488.59;4959728;28;1101;-74
2023/06/28 03:35:25;;;;;;;;;;;;;;;21.90;28.26;97499.06;4959994;28;1971;-73
2023/06/28 03:37:51;;;;;;;;;;;;;;;21.96;28.01;97494.38;4976218;28;980;-74
2023/06/28 03:40:16;;;;;;;;;;;;;;;21.96;28.28;97485.88;4959727;28;1105;-74
2023/06/28 03:42:42;;;;;;;;;;;;;;;21.97;28.23;97493.16;4959603;28;1076;-75
2023/06/28 03:45:08;;;;;;;;;;;;;;;21.88;28.46;97485.38;5016877;28;1059;-74
2023/06/28 03:47:33;;;;;;;;;;;;;;;22.00;28.36;97486.56;5032216;28;1119;-75
2023/06/28 03:49:59;;;;;;;;;;;;;;;22.21;27.95;97488.63;5015795;28;1199;-75
2023/06/28 03:52:26;;;;;;;;;;;;;;;22.00;28.50;97487.34;5015944;28;959;-74
2023/06/28 03:54:52;;;;;;;;;;;;;;;21.99;28.63;97490.66;5015628;28;1902;-74
2023/06/28 03:57:18;;;;;;;;;;;;;;;22.09;28.47;97490.25;5017078;28;934;-74
2023/06/28 03:59:43;;;;;;;;;;;;;;;21.89;28.77;97481.28;4999129;28;1215;-75
2023/06/28 04:02:09;;;;;;;;;;;;;;;22.03;28.48;97485.66;5015783;28;969;-74
2023/06/28 04:04:34;;;;;;;;;;;;;;;21.91;28.67;97480.81;5016595;28;953;-74
2023/06/28 04:07:02;;;;;;;;;;;;;;;22.18;28.53;97489.56;5015691;28;954;-75
2023/06/28 04:09:28;;;;;;;;;;;;;;;22.24;28.46;97489.75;5015707;28;1100;-74
2023/06/28 04:11:54;;;;;;;;;;;;;;;22.19;28.36;97488.31;5031856;28;920;-75
2023/06/28 04:14:19;;;;;;;;;;;;;;;21.97;28.64;97482.63;5015345;28;1975;-75
2023/06/28 04:16:45;;;;;;;;;;;;;;;22.18;28.53;97492.41;5031913;28;922;-74
2023/06/28 04:19:10;;;;;;;;;;;;;;;22.32;28.46;97493.91;4999209;28;1130;-75
2023/06/28 04:21:36;;;;;;;;;;;;;;;22.10;28.79;97502.38;5031858;28;967;-75
2023/06/28 04:24:02;;;;;;;;;;;;;;;21.93;29.07;97489.66;5016366;28;936;-74
2023/06/28 04:26:27;;;;;;;;;;;;;;;21.89;29.02;97491.81;5015325;28;1336;-75
2023/06/28 04:28:53;;;;;;;;;;;;;;;22.10;28.85;97486.19;5016641;28;1082;-74
2023/06/28 04:31:18;;;;;;;;;;;;;;;22.20;28.66;97498.38;5018406;28;1306;-75
2023/06/28 04:33:45;;;;;;;;;;;;;;;22.10;28.92;97491.03;5035711;28;1906;-74
2023/06/28 04:36:11;;;;;;;;;;;;;;;22.22;28.78;97498.72;5035681;28;972;-74
2023/06/28 04:38:37;;;;;;;;;;;;;;;22.26;28.77;97499.38;5035841;28;1029;-74
2023/06/28 04:41:03;;;;;;;;;;;;;;;22.38;28.55;97494.09;5020007;28;978;-74
2023/06/28 04:43:29;;;;;;;;;;;;;;;22.38;28.38;97499.75;5019354;28;1031;-74
2023/06/28 04:45:55;;;;;;;;;;;;;;;21.88;29.20;97496.69;4998363;28;1013;-74
2023/06/28 04:48:21;;;;;;;;;;;;;;;22.00;29.27;97497.88;4982263;28;931;-75
2023/06/28 04:50:47;;;;;;;;;;;;;;;22.14;29.04;97503.06;4982614;28;983;-74
2023/06/28 04:53:13;;;;;;;;;;;;;;;22.24;28.89;97507.56;4966001;28;969;-74
2023/06/28 04:55:38;;;;;;;;;;;;;;;22.10;28.86;97503.19;4981849;28;1979;-74
2023/06/28 04:58:04;;;;;;;;;;;;;;;22.31;28.69;97507.28;4998418;28;1052;-74
2023/06/28 05:00:30;;;;;;;;;;;;;;;22.30;28.55;97510.59;4981874;28;1004;-75
2023/06/28 05:03:00;;;;;;;;;;;;;;;22.23;29.05;97502.34;4981843;28;967;-75
2023/06/28 05:05:25;;;;;;;;;;;;;;;22.32;28.77;97508.06;4982449;28;985;-74
2023/06/28 05:07:52;;;;;;;;;;;;;;;22.22;28.68;97509.25;4965861;28;1252;-74
2023/06/28 05:10:17;;;;;;;;;;;;;;;22.19;29.09;97516.66;4981700;28;958;-74
2023/06/28 05:12:43;;;;;;;;;;;;;;;22.33;28.68;97509.66;4981947;28;937;-74
2023/06/28 05:15:09;;;;;;;;;;;;;;;22.19;29.17;97513.81;4965914;28;1915;-75
2023/06/28 05:17:34;;;;;;;;;;;;;;;22.30;28.51;97505.72;4994009;28;1077;-74
2023/06/28 05:20:00;;;;;;;;;;;;;;;22.49;28.46;97511.50;5035666;28;1014;-75
2023/06/28 05:22:27;;;;;;;;;;;;;;;22.38;28.89;97516.75;5019458;28;955;-74
2023/06/28 05:24:52;;;;;;;;;;;;;;;22.60;28.60;97517.56;5019635;28;954;-75
2023/06/28 05:27:19;;;;;;;;;;;;;;;22.59;28.58;97521.66;5018587;28;1233;-74
2023/06/28 05:29:45;;;;;;;;;;;;;;;22.31;28.84;97515.78;5017047;28;950;-74
2023/06/28 05:32:10;;;;;;;;;;;;;;;22.43;28.83;97524.69;4984979;28;1502;-74
2023/06/28 05:34:35;;;;;;;;;;;;;;;22.52;28.70;97521.91;5000848;28;1977;-74
2023/06/28 05:37:01;;;;;;;;;;;;;;;22.24;29.10;97518.91;5001183;28;1029;-74
2023/06/28 05:39:26;;;;;;;;;;;;;;;22.05;29.64;97517.13;5017237;28;1016;-74
2023/06/28 05:41:52;;;;;;;;;;;;;;;22.27;29.19;97517.94;4999868;28;1052;-74
2023/06/28 05:44:20;;;;;;;;;;;;;;;22.31;28.99;97518.63;5000768;28;1081;-74
2023/06/28 05:46:46;;;;;;;;;;;;;;;22.14;29.37;97522.91;5016873;28;910;-75
2023/06/28 05:49:12;;;;;;;;;;;;;;;22.16;29.33;97523.22;4977502;28;1041;-75
2023/06/28 05:51:37;;;;;;;;;;;;;;;21.92;29.76;97519.25;4977999;28;987;-74
2023/06/28 05:54:03;;;;;;;;;;;;;;;22.22;29.18;97518.53;4977556;28;1906;-74
2023/06/28 05:56:29;;;;;;;;;;;;;;;22.05;29.57;97514.28;4977658;28;982;-74
2023/06/28 05:58:56;;;;;;;;;;;;;;;22.15;29.31;97527.31;4961834;28;960;-75
2023/06/28 06:01:22;;;;;;;;;;;;;;;22.09;29.63;97517.81;4934475;29;1068;-75
2023/06/28 06:03:48;;;;;;;;;;;;;;;22.22;29.39;97517.75;4923389;29;1029;-74
2023/06/28 06:06:13;;;;;;;;;;;;;;;21.95;29.82;97518.31;4939078;29;912;-74
2023/06/28 06:08:39;;;;;;;;;;;;;;;22.16;29.64;97514.72;4938879;29;1373;-74
2023/06/28 06:11:05;;;;;;;;;;;;;;;22.51;28.87;97509.00;4938798;29;1045;-74
2023/06/28 06:13:30;;;;;;;;;;;;;;;22.50;29.02;97507.41;4939217;29;1984;-75
2023/06/28 06:15:56;;;;;;;;;;;;;;;22.22;29.62;97512.88;4939023;29;967;-74
2023/06/28 06:18:21;;;;;;;;;;;;;;;22.42;29.43;97517.44;4923261;29;947;-74
2023/06/28 06:20:47;;;;;;;;;;;;;;;22.36;29.40;97515.19;4938956;29;962;-75
2023/06/28 06:23:12;;;;;;;;;;;;;;;22.48;29.29;97524.06;4938569;29;1031;-75
2023/06/28 06:25:38;;;;;;;;;;;;;;;22.22;29.68;97521.38;4926573;28;1413;-75
2023/06/28 06:28:03;;;;;;;;;;;;;;;22.56;29.52;97516.91;4941862;29;1306;-75
2023/06/28 06:30:29;;;;;;;;;;;;;;;22.48;29.52;97524.06;4957706;29;1045;-74
2023/06/28 06:32:54;;;;;;;;;;;;;;;22.25;29.96;97525.34;4959129;28;1195;-75
2023/06/28 06:35:20;;;;;;;;;;;;;;;22.16;30.17;97528.91;4980436;28;1914;-74
2023/06/28 06:37:46;;;;;;;;;;;;;;;22.39;30.00;97529.72;4960644;28;989;-74
2023/06/28 06:40:11;;;;;;;;;;;;;;;22.52;29.99;97521.91;4960751;28;999;-76
2023/06/28 06:42:37;;;;;;;;;;;;;;;22.35;30.08;97527.78;4961057;28;987;-75
2023/06/28 06:45:02;;;;;;;;;;;;;;;22.39;30.07;97521.22;4976881;28;1076;-75
2023/06/28 06:47:28;;;;;;;;;;;;;;;22.22;30.32;97515.72;4938358;29;1145;-75
2023/06/28 06:49:53;;;;;;;;;;;;;;;22.36;29.86;97520.84;4938094;29;1056;-75
2023/06/28 06:52:19;;;;;;;;;;;;;;;22.34;30.00;97517.72;4922117;29;1264;-75
2023/06/28 06:54:44;;;;;;;;;;;;;;;22.33;29.86;97518.97;4936984;29;1898;-75
2023/06/28 06:57:10;;;;;;;;;;;;;;;22.52;29.72;97524.75;4938380;29;967;-75
2023/06/28 06:59:36;;;;;;;;;;;;;;;22.43;29.68;97519.00;4966013;28;1099;-75
2023/06/28 07:02:01;;;;;;;;;;;;;;;22.23;30.26;97522.97;4960472;28;1027;-74
2023/06/28 07:04:27;;;;;;;;;;;;;;;22.04;30.36;97532.56;4976379;28;1037;-75
2023/06/28 07:06:52;;;;;;;;;;;;;;;22.40;29.96;97532.06;4976412;28;1139;-74
2023/06/28 07:09:18;;;;;;;;;;;;;;;22.41;29.68;97527.19;4960333;28;1620;-75
2023/06/28 07:11:43;;;;;;;;;;;;;;;22.38;30.13;97522.44;4976603;28;944;-75
2023/06/28 07:14:09;;;;;;;;;;;;;;;22.31;30.19;97535.63;4960407;28;1902;-76
2023/06/28 07:16:34;;;;;;;;;;;;;;;22.32;30.05;97525.06;4960374;28;1116;-74
2023/06/28 07:19:00;;;;;;;;;;;;;;;22.57;29.78;97532.66;4960460;28;997;-74
2023/06/28 07:21:26;;;;;;;;;;;;;;;22.62;29.68;97532.06;4956797;28;925;-74
2023/06/28 07:23:51;;;;;;;;;;;;;;;22.39;29.75;97541.03;4961433;28;941;-75
2023/06/28 07:26:17;;;;;;;;;;;;;;;22.23;30.24;97540.00;4976067;28;940;-74
2023/06/28 07:28:43;;;;;;;;;;;;;;;22.30;29.98;97539.72;4959925;28;894;-74
2023/06/28 07:31:08;;;;;;;;;;;;;;;22.22;29.97;97532.72;4960312;28;942;-75
2023/06/28 07:33:34;;;;;;;;;;;;;;;22.62;29.51;97534.88;4959945;28;1910;-75
2023/06/28 07:36:00;;;;;;;;;;;;;;;22.49;29.72;97529.31;4959815;28;981;-75
2023/06/28 07:38:25;;;;;;;;;;;;;;;22.51;29.75;97532.47;4943949;28;1228;-74
2023/06/28 07:40:51;;;;;;;;;;;;;;;22.66;29.41;97529.09;4937210;29;1073;-74
2023/06/28 07:43:17;;;;;;;;;;;;;;;22.46;29.84;97529.44;4921599;29;980;-75
2023/06/28 07:45:43;;;;;;;;;;;;;;;22.61;29.55;97530.47;4905767;29;1089;-75
2023/06/28 07:48:08;;;;;;;;;;;;;;;22.54;29.98;97525.09;4905652;29;1284;-75
2023/06/28 07:50:34;;;;;;;;;;;;;;;22.23;30.53;97525.81;4937123;29;939;-74
2023/06/28 07:53:00;;;;;;;;;;;;;;;22.52;29.84;97524.75;4920991;29;979;-75
2023/06/28 07:55:27;;;;;;;;;;;;;;;22.32;30.08;97525.06;4921216;29;1914;-74
2023/06/28 07:57:54;;;;;;;;;;;;;;;22.15;30.61;97515.97;4951801;29;959;-74
2023/06/28 08:00:19;;;;;;;;;;;;;;;22.36;30.19;97515.19;4940475;29;1018;-75
2023/06/28 08:02:45;;;;;;;;;;;;;;;22.49;29.87;97509.47;4940465;29;937;-74
2023/06/28 08:05:10;;;;;;;;;;;;;;;22.52;29.93;97510.56;4955812;28;996;-74
2023/06/28 08:07:36;;;;;;;;;;;;;;;22.43;30.10;97519.00;4939957;29;1072;-74
2023/06/28 08:10:02;;;;;;;;;;;;;;;22.47;30.16;97514.00;4956571;29;1051;-75
2023/06/28 08:12:27;;;;;;;;;;;;;;;22.52;30.08;97499.22;4953452;28;1294;-74
2023/06/28 08:14:53;;;;;;;;;;;;;;;22.39;30.54;97504.19;4978739;28;1965;-75
2023/06/28 08:17:20;;;;;;;;;;;;;;;22.32;30.69;97503.19;4978025;28;1053;-74
2023/06/28 08:19:45;;;;;;;;;;;;;;;22.24;30.90;97506.78;4978383;28;1164;-75
2023/06/28 08:22:12;;;;;;;;;;;;;;;22.63;30.19;97511.72;4994785;28;1047;-74
2023/06/28 08:24:38;;;;;;;;;;;;;;;22.61;30.14;97502.91;5005770;28;890;-74
2023/06/28 08:27:04;;;;;;;;;;;;;;;22.48;30.50;97507.06;5016556;28;906;-75
2023/06/28 08:29:29;;;;;;;;;;;;;;;22.43;30.49;97502.78;5014940;28;942;-74
2023/06/28 08:31:55;;;;;;;;;;;;;;;22.14;31.06;97503.06;5015196;28;1016;-74
2023/06/28 08:34:20;;;;;;;;;;;;;;;22.62;30.46;97504.47;5014736;28;1987;-75
2023/06/28 08:36:46;;;;;;;;;;;;;;;22.78;30.31;97505.50;5015270;28;947;-75
2023/06/28 08:39:11;;;;;;;;;;;;;;;22.91;29.99;97502.63;5015511;28;1035;-75
2023/06/28 08:41:37;;;;;;;;;;;;;;;22.77;30.41;97499.06;5015320;28;989;-75
2023/06/28 08:44:03;;;;;;;;;;;;;;;22.65;30.16;97497.09;5016327;28;872;-74
2023/06/28 08:46:31;;;;;;;;;;;;;;;22.44;30.81;97498.72;4998845;28;1057;-75
2023/06/28 08:48:57;;;;;;;;;;;;;;;22.51;30.78;97500.47;5016402;28;933;-75
2023/06/28 08:51:23;;;;;;;;;;;;;;;22.79;30.36;97496.53;5015110;28;981;-75
2023/06/28 08:53:48;;;;;;;;;;;;;;;22.59;30.63;97494.09;5015128;28;1977;-75
2023/06/28 08:56:15;;;;;;;;;;;;;;;22.81;30.12;97491.19;5016114;28;1034;-75
2023/06/28 08:58:44;;;;;;;;;;;;;;;22.75;30.45;97500.78;4998794;28;1051;-75
2023/06/28 09:01:10;;;;;;;;;;;;;;;22.74;30.29;97494.31;5015175;28;997;-75
2023/06/28 09:03:41;;;;;;;;;;;;;;;22.62;30.83;97492.34;5015205;28;969;-74
2023/06/28 09:06:06;;;;;;;;;;;;;;;22.56;30.65;97500.66;5015731;28;958;-74
2023/06/28 09:08:32;;;;;;;;;;;;;;;22.59;30.86;97487.63;5014928;28;1225;-75
2023/06/28 09:11:01;;;;;;;;;;;;;;;22.55;30.92;97504.75;5014923;28;890;-75
2023/06/28 09:13:27;;;;;;;;;;;;;;;22.71;30.70;97498.06;4998513;28;1400;-74
2023/06/28 09:15:53;;;;;;;;;;;;;;;22.60;30.49;97489.19;5014623;28;1891;-75
2023/06/28 09:18:19;;;;;;;;;;;;;;;22.69;30.98;97492.09;5000898;28;999;-75
2023/06/28 09:20:51;;;;;;;;;;;;;;;22.48;31.14;97498.56;4997459;28;959;-75
2023/06/28 09:23:23;;;;;;;;;;;;;;;22.58;30.98;97480.34;4981412;28;1088;-74
2023/06/28 09:25:49;;;;;;;;;;;;;;;22.69;30.53;97480.75;4942991;29;1257;-75
2023/06/28 09:28:15;;;;;;;;;;;;;;;22.70;30.65;97479.50;4958515;28;982;-75
2023/06/28 09:30:53;;;;;;;;;;;;;;;22.75;30.41;97478.88;4944164;29;1315;-75
2023/06/28 09:33:18;;;;;;;;;;;;;;;22.73;30.50;97475.69;4942739;29;967;-74
2023/06/28 09:35:44;;;;;;;;;;;;;;;22.73;30.75;97475.69;4942751;29;1907;-75
2023/06/28 09:38:10;;;;;;;;;;;;;;;22.74;30.33;97480.16;4942774;29;982;-75
2023/06/28 09:40:35;;;;;;;;;;;;;;;22.73;30.36;97475.69;4942444;29;1047;-74
2023/06/28 09:43:01;;;;;;;;;;;;;;;22.66;30.42;97478.84;4942315;29;1032;-75
2023/06/28 09:45:28;;;;;;;;;;;;;;;22.63;30.58;97465.56;4942768;29;1066;-75
2023/06/28 09:47:59;;;;;;;;;;;;;;;22.76;30.45;97469.13;4942564;29;1116;-75
2023/06/28 09:50:43;;;;;;;;;;;;;;;22.61;30.79;97465.25;4943014;29;1140;-75
2023/06/28 09:53:09;;;;;;;;;;;;;;;22.66;30.81;97464.66;4980944;28;1337;-75
2023/06/28 09:55:36;;;;;;;;;;;;;;;22.79;30.34;97468.16;4980844;28;1926;-74
2023/06/28 09:58:01;;;;;;;;;;;;;;;22.98;29.88;97462.59;5017914;28;1016;-74
2023/06/28 10:00:28;;;;;;;;;;;;;;;22.77;30.54;97459.34;5000934;28;864;-75
2023/06/28 10:02:53;;;;;;;;;;;;;;;22.73;30.58;97464.34;5001620;28;1180;-74
2023/06/28 10:05:18;;;;;;;;;;;;;;;22.68;30.33;97459.28;5001422;28;905;-75
2023/06/28 10:07:44;;;;;;;;;;;;;;;22.81;30.39;97448.66;5001088;28;1035;-75
2023/06/28 10:10:10;;;;;;;;;;;;;;;22.83;30.16;97453.84;5017094;28;993;-75
2023/06/28 10:12:35;;;;;;;;;;;;;;;22.64;30.60;97447.31;5017596;28;939;-75
2023/06/28 10:15:06;;;;;;;;;;;;;;;22.83;30.43;97448.97;5015782;28;1977;-76
2023/06/28 10:17:32;;;;;;;;;;;;;;;22.75;30.53;97444.06;4998424;28;2093;-75
2023/06/28 10:19:58;;;;;;;;;;;;;;;22.79;30.71;97456.03;4999919;28;1098;-75
2023/06/28 10:22:24;;;;;;;;;;;;;;;22.48;31.26;97456.03;4999847;28;1026;-75
2023/06/28 10:24:49;;;;;;;;;;;;;;;22.67;30.91;97452.03;5016230;28;928;-75
2023/06/28 10:27:15;;;;;;;;;;;;;;;22.75;30.59;97447.69;4999803;28;916;-75
2023/06/28 10:29:40;;;;;;;;;;;;;;;22.48;31.49;97447.53;4999728;28;994;-74
2023/06/28 10:32:06;;;;;;;;;;;;;;;22.68;31.01;97445.13;4999578;28;922;-74
2023/06/28 10:34:32;;;;;;;;;;;;;;;22.81;30.54;97448.66;4999491;28;1910;-74
2023/06/28 10:36:57;;;;;;;;;;;;;;;22.74;30.83;97442.47;4999742;28;960;-75
2023/06/28 10:39:23;;;;;;;;;;;;;;;22.69;31.09;97446.72;5015946;28;998;-75
2023/06/28 10:41:55;;;;;;;;;;;;;;;22.58;31.11;97434.97;4999437;28;1087;-74
2023/06/28 10:44:21;;;;;;;;;;;;;;;23.00;30.47;97448.72;4999398;28;903;-74
2023/06/28 10:46:46;;;;;;;;;;;;;;;22.75;30.93;97444.06;5032904;28;962;-75
2023/06/28 10:49:15;;;;;;;;;;;;;;;23.05;30.47;97448.13;5017111;28;928;-75
2023/06/28 10:51:44;;;;;;;;;;;;;;;22.89;30.97;97440.66;5018203;28;918;-74
2023/06/28 10:54:10;;;;;;;;;;;;;;;22.79;31.07;97439.81;5016882;28;1902;-75
2023/06/28 10:56:58;;;;;;;;;;;;;;;22.79;31.16;97448.31;5017892;28;1000;-75
2023/06/28 10:59:25;;;;;;;;;;;;;;;22.91;30.69;97435.31;5000254;28;1413;-74
2023/06/28 11:01:54;;;;;;;;;;;;;;;22.68;31.19;97433.78;5016385;28;1313;-75
2023/06/28 11:04:23;;;;;;;;;;;;;;;22.56;31.19;97431.84;5016394;28;984;-75
2023/06/28 11:07:07;;;;;;;;;;;;;;;22.80;30.96;97435.72;5016380;28;962;-74
2023/06/28 11:09:32;;;;;;;;;;;;;;;22.82;31.21;97438.88;5016281;28;1063;-75
2023/06/28 11:11:58;;;;;;;;;;;;;;;22.85;31.14;97432.28;5017736;28;907;-75
2023/06/28 11:14:27;;;;;;;;;;;;;;;22.90;30.64;97438.59;4999992;28;1969;-75
2023/06/28 11:17:02;;;;;;;;;;;;;;;22.74;31.37;97426.25;5020228;28;1825;-73
2023/06/28 11:19:28;;;;;;;;;;;;;;;23.11;30.97;97434.91;5020210;28;1972;-75
2023/06/28 11:21:57;;;;;;;;;;;;;;;23.27;30.63;97434.63;5015850;28;1923;-76
2023/06/28 11:24:28;;;;;;;;;;;;;;;23.58;32.09;97425.22;5031865;28;1838;-74
2023/06/28 11:26:54;;;;;;;;;;;;;;;23.23;32.63;97428.31;5030822;28;1942;-67
2023/06/28 11:29:20;;;;;;;;;;;;;;;23.70;33.36;97429.97;5020108;28;1851;-69
2023/06/28 11:31:49;;;;;;;;;;;;;;;23.60;34.02;97445.38;5025905;28;1549;-71
2023/06/28 11:34:14;;;;;;;;;;;;;;;23.32;34.33;97442.53;5028723;28;1953;-74
2023/06/28 11:36:40;;;;;;;;;;;;;;;22.74;34.61;97431.94;5012787;28;1938;-74
2023/06/28 11:39:07;;;;;;;;;;;;;;;22.42;34.94;97444.50;4992842;28;2135;-75
2023/06/28 11:41:35;;;;;;;;;;;;;;;22.65;34.69;97451.72;4981769;28;1184;-74
2023/06/28 11:44:07;;;;;;;;;;;;;;;22.91;33.60;97440.22;4998115;28;980;-74
2023/06/28 11:46:33;;;;;;;;;;;;;;;23.09;33.09;97452.38;4982425;28;989;-74
2023/06/28 11:49:01;;;;;;;;;;;;;;;23.02;33.09;97452.69;5014570;28;1135;-75
2023/06/28 11:51:27;;;;;;;;;;;;;;;22.76;32.97;97445.63;4998248;28;981;-75
2023/06/28 11:53:55;;;;;;;;;;;;;;;23.12;32.25;97445.00;5014284;28;2025;-74
2023/06/28 11:56:39;;;;;;;;;;;;;;;23.02;32.32;97440.56;4997756;28;987;-75
2023/06/28 11:59:17;;;;;;;;;;;;;;;23.30;31.84;97442.19;4997816;28;1180;-74
2023/06/28 12:01:43;;;;;;;;;;;;;;;23.05;31.79;97446.09;4980656;28;1243;-74
2023/06/28 12:04:27;;;;;;;;;;;;;;;23.18;31.75;97448.78;4988763;28;1279;-75
2023/06/28 12:06:52;;;;;;;;;;;;;;;23.22;31.72;97454.34;5008795;28;1223;-74
2023/06/28 12:09:18;;;;;;;;;;;;;;;23.02;32.08;97452.69;5011192;28;1223;-75
2023/06/28 12:11:53;;;;;;;;;;;;;;;23.16;31.69;97462.69;4992464;28;1080;-75
2023/06/28 12:14:21;;;;;;;;;;;;;;;23.31;31.28;97463.66;5008705;28;1985;-74
2023/06/28 12:16:47;;;;;;;;;;;;;;;23.23;31.51;97462.38;5016634;28;1254;-75
2023/06/28 12:19:16;;;;;;;;;;;;;;;23.16;31.32;97474.03;5008664;28;1309;-75
2023/06/28 12:21:42;;;;;;;;;;;;;;;23.31;31.08;97480.69;5008534;28;1365;-74
2023/06/28 12:24:10;;;;;;;;;;;;;;;23.20;31.22;97491.69;5022867;28;1262;-74
2023/06/28 12:26:36;;;;;;;;;;;;;;;23.12;31.30;97481.91;5000551;28;1278;-74
2023/06/28 12:29:06;;;;;;;;;;;;;;;23.20;31.39;97480.31;4992303;28;1431;-74
2023/06/28 12:31:46;;;;;;;;;;;;;;;23.36;31.01;97476.41;4965736;28;1187;-75
2023/06/28 12:34:12;;;;;;;;;;;;;;;23.10;31.31;97478.72;4997638;28;1902;-74
2023/06/28 12:36:39;;;;;;;;;;;;;;;23.19;31.02;97483.63;4981400;28;943;-74
2023/06/28 12:39:05;;;;;;;;;;;;;;;22.99;31.40;97475.53;4981353;28;1235;-74
2023/06/28 12:41:30;;;;;;;;;;;;;;;23.20;31.11;97479.53;5015267;28;925;-74
2023/06/28 12:43:56;;;;;;;;;;;;;;;23.14;30.97;97482.19;4998882;28;887;-74
2023/06/28 12:46:22;;;;;;;;;;;;;;;23.04;31.01;97477.75;5014852;28;883;-74
2023/06/28 12:48:49;;;;;;;;;;;;;;;23.05;30.70;97485.81;4998590;28;1128;-75
2023/06/28 12:51:14;;;;;;;;;;;;;;;23.24;30.16;97491.53;4999422;28;1293;-75
2023/06/28 12:53:40;;;;;;;;;;;;;;;23.17;30.58;97481.28;5002339;28;1278;-74
2023/06/28 12:56:05;;;;;;;;;;;;;;;23.18;30.26;97487.75;5018834;28;1949;-75